Terminal Aerodrome Forecast
Issued by NWS

Home | Current Version | Previous Version | Text Only | Print | Product List | Glossary On
Versions: 1 2 3 4 5 6 7 8 9 10 11 12 13 14 15 16 17 18
109
FTUS41 KBTV 100537
TAFSLK
TAF
KSLK 100537Z 1006/1106 VRB03KT 3SM -SN BR OVC015
      TEMPO 1006/1010 2SM -SN BR
     FM101000 VRB03KT 2SM -SN BR OVC015
     FM101900 25006KT 1 1/2SM -SN BR OVC015
     FM110000 25004KT 2SM -SN BR OVC011=

USA.gov is the U.S. government's official web portal to all federal, state and local government web resources and services.